sensor_id;sensor_type;location;lat;lon;timestamp;temperature;humidity
3919;DHT22;1974;48.670;8.994;2023-08-06T00:00:27;15.60;99.90
3919;DHT22;1974;48.670;8.994;2023-08-06T00:02:54;15.60;99.90
3919;DHT22;1974;48.670;8.994;2023-08-06T00:05:21;15.50;99.90
3919;DHT22;1974;48.670;8.994;2023-08-06T00:07:48;15.60;99.90
3919;DHT22;1974;48.670;8.994;2023-08-06T00:10:15;15.50;99.90
3919;DHT22;1974;48.670;8.994;2023-08-06T00:12:41;15.60;99.90
3919;DHT22;1974;48.670;8.994;2023-08-06T00:15:09;15.50;99.90
3919;DHT22;1974;48.670;8.994;2023-08-06T00:17:37;15.50;99.90
3919;DHT22;1974;48.670;8.994;2023-08-06T00:20:05;15.50;99.90
3919;DHT22;1974;48.670;8.994;2023-08-06T00:22:32;15.50;99.90
3919;DHT22;1974;48.670;8.994;2023-08-06T00:25:00;15.50;99.90
3919;DHT22;1974;48.670;8.994;2023-08-06T00:27:26;15.50;99.90
3919;DHT22;1974;48.670;8.994;2023-08-06T00:29:53;15.50;99.90
3919;DHT22;1974;48.670;8.994;2023-08-06T00:32:20;15.50;99.90
3919;DHT22;1974;48.670;8.994;2023-08-06T00:34:48;15.50;99.90
3919;DHT22;1974;48.670;8.994;2023-08-06T00:37:17;15.40;99.90
3919;DHT22;1974;48.670;8.994;2023-08-06T00:39:43;15.40;99.90
3919;DHT22;1974;48.670;8.994;2023-08-06T00:42:10;15.40;99.90
3919;DHT22;1974;48.670;8.994;2023-08-06T00:44:38;15.40;99.90
3919;DHT22;1974;48.670;8.994;2023-08-06T00:47:06;15.40;99.90
3919;DHT22;1974;48.670;8.994;2023-08-06T00:49:34;15.40;99.90
3919;DHT22;1974;48.670;8.994;2023-08-06T00:52:04;15.30;99.90
3919;DHT22;1974;48.670;8.994;2023-08-06T00:54:31;15.30;99.90
3919;DHT22;1974;48.670;8.994;2023-08-06T00:56:59;15.30;99.90
3919;DHT22;1974;48.670;8.994;2023-08-06T00:59:27;15.30;99.90
3919;DHT22;1974;48.670;8.994;2023-08-06T01:01:54;15.30;99.90
3919;DHT22;1974;48.670;8.994;2023-08-06T01:04:22;15.20;99.90
3919;DHT22;1974;48.670;8.994;2023-08-06T01:06:59;15.20;99.90
3919;DHT22;1974;48.670;8.994;2023-08-06T01:09:35;15.10;99.90
3919;DHT22;1974;48.670;8.994;2023-08-06T01:12:09;15.10;99.90
3919;DHT22;1974;48.670;8.994;2023-08-06T01:14:45;15.10;99.90
3919;DHT22;1974;48.670;8.994;2023-08-06T01:17:14;15.00;99.90
3919;DHT22;1974;48.670;8.994;2023-08-06T01:19:41;15.00;99.90
3919;DHT22;1974;48.670;8.994;2023-08-06T01:22:09;15.00;99.90
3919;DHT22;1974;48.670;8.994;2023-08-06T01:24:36;15.00;99.90
3919;DHT22;1974;48.670;8.994;2023-08-06T01:27:08;14.90;99.90
3919;DHT22;1974;48.670;8.994;2023-08-06T01:29:41;14.90;99.90
3919;DHT22;1974;48.670;8.994;2023-08-06T01:32:09;14.80;99.90
3919;DHT22;1974;48.670;8.994;2023-08-06T01:34:39;14.80;99.90
3919;DHT22;1974;48.670;8.994;2023-08-06T01:37:07;14.80;99.90
3919;DHT22;1974;48.670;8.994;2023-08-06T01:39:35;14.80;99.90
3919;DHT22;1974;48.670;8.994;2023-08-06T01:42:02;14.80;99.90
3919;DHT22;1974;48.670;8.994;2023-08-06T01:44:29;14.80;99.90
3919;DHT22;1974;48.670;8.994;2023-08-06T01:46:56;14.80;99.90
3919;DHT22;1974;48.670;8.994;2023-08-06T01:49:23;14.80;99.90
3919;DHT22;1974;48.670;8.994;2023-08-06T01:51:50;14.80;99.90
3919;DHT22;1974;48.670;8.994;2023-08-06T01:54:16;14.80;99.90
3919;DHT22;1974;48.670;8.994;2023-08-06T01:56:44;14.70;99.90
3919;DHT22;1974;48.670;8.994;2023-08-06T01:59:11;14.70;99.90
3919;DHT22;1974;48.670;8.994;2023-08-06T02:01:38;14.70;99.90
3919;DHT22;1974;48.670;8.994;2023-08-06T02:04:05;14.70;99.90
3919;DHT22;1974;48.670;8.994;2023-08-06T02:06:31;14.70;99.90
3919;DHT22;1974;48.670;8.994;2023-08-06T02:08:58;14.70;99.90
3919;DHT22;1974;48.670;8.994;2023-08-06T02:11:25;14.60;99.90
3919;DHT22;1974;48.670;8.994;2023-08-06T02:13:53;14.60;99.90
3919;DHT22;1974;48.670;8.994;2023-08-06T02:16:20;14.60;99.90
3919;DHT22;1974;48.670;8.994;2023-08-06T02:18:46;14.60;99.90
3919;DHT22;1974;48.670;8.994;2023-08-06T02:21:13;14.50;99.90
3919;DHT22;1974;48.670;8.994;2023-08-06T02:23:40;14.50;99.90
3919;DHT22;1974;48.670;8.994;2023-08-06T02:26:06;14.50;99.90
3919;DHT22;1974;48.670;8.994;2023-08-06T02:28:33;14.40;99.90
3919;DHT22;1974;48.670;8.994;2023-08-06T02:31:01;14.40;99.90
3919;DHT22;1974;48.670;8.994;2023-08-06T02:33:28;14.40;99.90
3919;DHT22;1974;48.670;8.994;2023-08-06T02:36:02;14.40;99.90
3919;DHT22;1974;48.670;8.994;2023-08-06T02:38:30;14.50;99.90
3919;DHT22;1974;48.670;8.994;2023-08-06T02:40:56;14.50;99.90
3919;DHT22;1974;48.670;8.994;2023-08-06T02:43:23;14.50;99.90
3919;DHT22;1974;48.670;8.994;2023-08-06T02:45:50;14.50;99.90
3919;DHT22;1974;48.670;8.994;2023-08-06T02:48:18;14.50;99.90
3919;DHT22;1974;48.670;8.994;2023-08-06T02:50:45;14.50;99.90
3919;DHT22;1974;48.670;8.994;2023-08-06T02:53:11;14.40;99.90
3919;DHT22;1974;48.670;8.994;2023-08-06T02:55:45;14.40;99.90
3919;DHT22;1974;48.670;8.994;2023-08-06T02:58:13;14.30;99.90
3919;DHT22;1974;48.670;8.994;2023-08-06T03:00:40;14.30;99.90
3919;DHT22;1974;48.670;8.994;2023-08-06T03:03:06;14.30;99.90
3919;DHT22;1974;48.670;8.994;2023-08-06T03:05:35;14.20;99.90
3919;DHT22;1974;48.670;8.994;2023-08-06T03:08:01;14.20;99.90
3919;DHT22;1974;48.670;8.994;2023-08-06T03:10:28;14.20;99.90
3919;DHT22;1974;48.670;8.994;2023-08-06T03:12:55;14.30;99.90
3919;DHT22;1974;48.670;8.994;2023-08-06T03:15:22;14.30;99.90
3919;DHT22;1974;48.670;8.994;2023-08-06T03:17:48;14.40;99.90
3919;DHT22;1974;48.670;8.994;2023-08-06T03:20:15;14.40;99.90
3919;DHT22;1974;48.670;8.994;2023-08-06T03:22:43;14.50;99.90
3919;DHT22;1974;48.670;8.994;2023-08-06T03:25:10;14.40;99.90
3919;DHT22;1974;48.670;8.994;2023-08-06T03:27:37;14.40;99.90
3919;DHT22;1974;48.670;8.994;2023-08-06T03:30:04;14.50;99.90
3919;DHT22;1974;48.670;8.994;2023-08-06T03:32:31;14.40;99.90
3919;DHT22;1974;48.670;8.994;2023-08-06T03:34:58;14.40;99.90
3919;DHT22;1974;48.670;8.994;2023-08-06T03:37:25;14.40;99.90
3919;DHT22;1974;48.670;8.994;2023-08-06T03:39:53;14.30;99.90
3919;DHT22;1974;48.670;8.994;2023-08-06T03:42:19;14.40;99.90
3919;DHT22;1974;48.670;8.994;2023-08-06T03:44:46;14.40;99.90
3919;DHT22;1974;48.670;8.994;2023-08-06T03:47:14;14.40;99.90
3919;DHT22;1974;48.670;8.994;2023-08-06T03:49:40;14.50;99.90
3919;DHT22;1974;48.670;8.994;2023-08-06T03:52:08;14.50;99.90
3919;DHT22;1974;48.670;8.994;2023-08-06T03:54:35;14.50;99.90
3919;DHT22;1974;48.670;8.994;2023-08-06T03:57:04;14.40;99.90
3919;DHT22;1974;48.670;8.994;2023-08-06T03:59:31;14.40;99.90
3919;DHT22;1974;48.670;8.994;2023-08-06T04:01:57;14.40;99.90
3919;DHT22;1974;48.670;8.994;2023-08-06T04:04:24;14.40;99.90
3919;DHT22;1974;48.670;8.994;2023-08-06T04:06:51;14.50;99.90
3919;DHT22;1974;48.670;8.994;2023-08-06T04:09:18;14.50;99.90
3919;DHT22;1974;48.670;8.994;2023-08-06T04:11:45;14.50;99.90
3919;DHT22;1974;48.670;8.994;2023-08-06T04:14:13;14.40;99.90
3919;DHT22;1974;48.670;8.994;2023-08-06T04:16:39;14.30;99.90
3919;DHT22;1974;48.670;8.994;2023-08-06T04:19:06;14.30;99.90
3919;DHT22;1974;48.670;8.994;2023-08-06T04:21:33;14.30;99.90
3919;DHT22;1974;48.670;8.994;2023-08-06T04:24:00;14.30;99.90
3919;DHT22;1974;48.670;8.994;2023-08-06T04:26:26;14.20;99.90
3919;DHT22;1974;48.670;8.994;2023-08-06T04:28:53;14.30;99.90
3919;DHT22;1974;48.670;8.994;2023-08-06T04:31:21;14.20;99.90
3919;DHT22;1974;48.670;8.994;2023-08-06T04:33:48;14.20;99.90
3919;DHT22;1974;48.670;8.994;2023-08-06T04:36:15;14.20;99.90
3919;DHT22;1974;48.670;8.994;2023-08-06T04:38:42;14.20;99.90
3919;DHT22;1974;48.670;8.994;2023-08-06T04:41:10;14.20;99.90
3919;DHT22;1974;48.670;8.994;2023-08-06T04:43:37;14.20;99.90
3919;DHT22;1974;48.670;8.994;2023-08-06T04:46:05;14.30;99.90
3919;DHT22;1974;48.670;8.994;2023-08-06T04:48:33;14.30;99.90
3919;DHT22;1974;48.670;8.994;2023-08-06T04:51:00;14.40;99.90
3919;DHT22;1974;48.670;8.994;2023-08-06T04:53:27;14.40;99.90
3919;DHT22;1974;48.670;8.994;2023-08-06T04:55:53;14.50;99.90
3919;DHT22;1974;48.670;8.994;2023-08-06T04:58:20;14.50;99.90
3919;DHT22;1974;48.670;8.994;2023-08-06T05:00:47;14.50;99.90
3919;DHT22;1974;48.670;8.994;2023-08-06T05:03:14;14.50;99.90
3919;DHT22;1974;48.670;8.994;2023-08-06T05:05:42;14.50;99.90
3919;DHT22;1974;48.670;8.994;2023-08-06T05:08:14;14.60;99.90
3919;DHT22;1974;48.670;8.994;2023-08-06T05:10:42;14.70;99.90
3919;DHT22;1974;48.670;8.994;2023-08-06T05:13:09;14.70;99.90
3919;DHT22;1974;48.670;8.994;2023-08-06T05:15:36;14.70;99.90
3919;DHT22;1974;48.670;8.994;2023-08-06T05:18:03;14.80;99.90
3919;DHT22;1974;48.670;8.994;2023-08-06T05:20:29;14.80;99.90
3919;DHT22;1974;48.670;8.994;2023-08-06T05:22:57;14.90;99.90
3919;DHT22;1974;48.670;8.994;2023-08-06T05:25:24;15.00;99.90
3919;DHT22;1974;48.670;8.994;2023-08-06T05:27:51;15.00;99.90
3919;DHT22;1974;48.670;8.994;2023-08-06T05:30:18;14.90;99.90
3919;DHT22;1974;48.670;8.994;2023-08-06T05:32:45;15.00;99.90
3919;DHT22;1974;48.670;8.994;2023-08-06T05:35:12;14.90;99.90
3919;DHT22;1974;48.670;8.994;2023-08-06T05:37:39;15.00;99.90
3919;DHT22;1974;48.670;8.994;2023-08-06T05:40:08;15.00;99.90
3919;DHT22;1974;48.670;8.994;2023-08-06T05:42:35;15.10;99.90
3919;DHT22;1974;48.670;8.994;2023-08-06T05:45:01;15.10;99.90
3919;DHT22;1974;48.670;8.994;2023-08-06T05:47:28;15.00;99.90
3919;DHT22;1974;48.670;8.994;2023-08-06T05:49:55;15.10;99.90
3919;DHT22;1974;48.670;8.994;2023-08-06T05:52:22;15.00;99.90
3919;DHT22;1974;48.670;8.994;2023-08-06T05:54:48;15.10;99.90
3919;DHT22;1974;48.670;8.994;2023-08-06T05:57:17;15.10;99.90
3919;DHT22;1974;48.670;8.994;2023-08-06T05:59:44;15.10;99.90
3919;DHT22;1974;48.670;8.994;2023-08-06T06:02:10;15.00;99.90
3919;DHT22;1974;48.670;8.994;2023-08-06T06:04:37;14.80;99.90
3919;DHT22;1974;48.670;8.994;2023-08-06T06:07:04;14.80;99.90
3919;DHT22;1974;48.670;8.994;2023-08-06T06:09:31;14.70;99.90
3919;DHT22;1974;48.670;8.994;2023-08-06T06:11:58;14.70;99.90
3919;DHT22;1974;48.670;8.994;2023-08-06T06:14:26;14.70;99.90
3919;DHT22;1974;48.670;8.994;2023-08-06T06:16:52;14.60;99.90
3919;DHT22;1974;48.670;8.994;2023-08-06T06:19:19;14.70;99.90
3919;DHT22;1974;48.670;8.994;2023-08-06T06:21:46;14.70;99.90
3919;DHT22;1974;48.670;8.994;2023-08-06T06:24:13;14.60;99.90
3919;DHT22;1974;48.670;8.994;2023-08-06T06:26:39;14.60;99.90
3919;DHT22;1974;48.670;8.994;2023-08-06T06:29:06;14.60;99.90
3919;DHT22;1974;48.670;8.994;2023-08-06T06:31:34;14.70;99.90
3919;DHT22;1974;48.670;8.994;2023-08-06T06:34:01;14.80;99.90
3919;DHT22;1974;48.670;8.994;2023-08-06T06:36:28;14.80;99.90
3919;DHT22;1974;48.670;8.994;2023-08-06T06:38:54;14.80;99.90
3919;DHT22;1974;48.670;8.994;2023-08-06T06:41:21;14.90;99.90
3919;DHT22;1974;48.670;8.994;2023-08-06T06:43:49;14.90;99.90
3919;DHT22;1974;48.670;8.994;2023-08-06T06:46:16;14.80;99.90
3919;DHT22;1974;48.670;8.994;2023-08-06T06:48:44;14.80;99.90
3919;DHT22;1974;48.670;8.994;2023-08-06T06:51:11;14.70;99.90
3919;DHT22;1974;48.670;8.994;2023-08-06T06:53:37;14.50;99.90
3919;DHT22;1974;48.670;8.994;2023-08-06T06:56:04;14.40;99.90
3919;DHT22;1974;48.670;8.994;2023-08-06T06:58:32;14.20;99.90
3919;DHT22;1974;48.670;8.994;2023-08-06T07:00:59;14.20;99.90
3919;DHT22;1974;48.670;8.994;2023-08-06T07:03:25;14.10;99.90
3919;DHT22;1974;48.670;8.994;2023-08-06T07:05:57;14.00;99.90
3919;DHT22;1974;48.670;8.994;2023-08-06T07:08:24;14.00;99.90
3919;DHT22;1974;48.670;8.994;2023-08-06T07:10:51;14.00;99.90
3919;DHT22;1974;48.670;8.994;2023-08-06T07:13:25;14.00;99.90
3919;DHT22;1974;48.670;8.994;2023-08-06T07:15:52;14.00;99.90
3919;DHT22;1974;48.670;8.994;2023-08-06T07:18:19;14.10;99.90
3919;DHT22;1974;48.670;8.994;2023-08-06T07:20:48;14.00;99.90
3919;DHT22;1974;48.670;8.994;2023-08-06T07:23:16;14.00;99.90
3919;DHT22;1974;48.670;8.994;2023-08-06T07:25:43;13.90;99.90
3919;DHT22;1974;48.670;8.994;2023-08-06T07:28:10;13.90;99.90
3919;DHT22;1974;48.670;8.994;2023-08-06T07:30:38;13.90;99.90
3919;DHT22;1974;48.670;8.994;2023-08-06T07:33:05;13.90;99.90
3919;DHT22;1974;48.670;8.994;2023-08-06T07:35:32;13.80;99.90
3919;DHT22;1974;48.670;8.994;2023-08-06T07:37:59;13.80;99.90
3919;DHT22;1974;48.670;8.994;2023-08-06T07:40:27;13.80;99.90
3919;DHT22;1974;48.670;8.994;2023-08-06T07:42:54;13.70;99.90
3919;DHT22;1974;48.670;8.994;2023-08-06T07:45:21;13.70;99.90
3919;DHT22;1974;48.670;8.994;2023-08-06T07:47:48;13.60;99.90
3919;DHT22;1974;48.670;8.994;2023-08-06T07:50:15;13.60;99.90
3919;DHT22;1974;48.670;8.994;2023-08-06T07:52:41;13.60;99.90
3919;DHT22;1974;48.670;8.994;2023-08-06T07:55:08;13.70;99.90
3919;DHT22;1974;48.670;8.994;2023-08-06T07:57:36;13.80;99.90
3919;DHT22;1974;48.670;8.994;2023-08-06T08:00:04;13.90;99.90
3919;DHT22;1974;48.670;8.994;2023-08-06T08:02:31;14.00;99.90
3919;DHT22;1974;48.670;8.994;2023-08-06T08:04:58;14.10;99.90
3919;DHT22;1974;48.670;8.994;2023-08-06T08:07:25;14.10;99.90
3919;DHT22;1974;48.670;8.994;2023-08-06T08:09:53;14.10;99.90
3919;DHT22;1974;48.670;8.994;2023-08-06T08:12:20;14.20;99.90
3919;DHT22;1974;48.670;8.994;2023-08-06T08:14:48;14.30;99.90
3919;DHT22;1974;48.670;8.994;2023-08-06T08:17:15;14.30;99.90
3919;DHT22;1974;48.670;8.994;2023-08-06T08:19:43;14.20;99.90
3919;DHT22;1974;48.670;8.994;2023-08-06T08:22:10;14.20;99.90
3919;DHT22;1974;48.670;8.994;2023-08-06T08:24:36;14.20;99.90
3919;DHT22;1974;48.670;8.994;2023-08-06T08:27:03;14.10;99.90
3919;DHT22;1974;48.670;8.994;2023-08-06T08:29:31;14.10;99.90
3919;DHT22;1974;48.670;8.994;2023-08-06T08:31:59;14.00;99.90
3919;DHT22;1974;48.670;8.994;2023-08-06T08:34:26;14.00;99.90
3919;DHT22;1974;48.670;8.994;2023-08-06T08:36:52;14.00;99.90
3919;DHT22;1974;48.670;8.994;2023-08-06T08:39:19;14.00;99.90
3919;DHT22;1974;48.670;8.994;2023-08-06T08:41:46;14.00;99.90
3919;DHT22;1974;48.670;8.994;2023-08-06T08:44:14;14.10;99.90
3919;DHT22;1974;48.670;8.994;2023-08-06T08:46:43;14.10;99.90
3919;DHT22;1974;48.670;8.994;2023-08-06T08:49:12;14.00;99.90
3919;DHT22;1974;48.670;8.994;2023-08-06T08:51:38;14.00;99.90
3919;DHT22;1974;48.670;8.994;2023-08-06T08:54:07;14.00;99.90
3919;DHT22;1974;48.670;8.994;2023-08-06T08:56:35;14.00;99.90
3919;DHT22;1974;48.670;8.994;2023-08-06T08:59:02;14.10;99.90
3919;DHT22;1974;48.670;8.994;2023-08-06T09:01:29;14.30;99.90
3919;DHT22;1974;48.670;8.994;2023-08-06T09:03:57;14.30;99.90
3919;DHT22;1974;48.670;8.994;2023-08-06T09:06:28;14.60;99.90
3919;DHT22;1974;48.670;8.994;2023-08-06T09:09:01;14.70;99.90
3919;DHT22;1974;48.670;8.994;2023-08-06T09:11:29;14.80;99.90
3919;DHT22;1974;48.670;8.994;2023-08-06T09:14:05;15.00;99.90
3919;DHT22;1974;48.670;8.994;2023-08-06T09:16:33;15.10;99.90
3919;DHT22;1974;48.670;8.994;2023-08-06T09:19:07;15.10;99.90
3919;DHT22;1974;48.670;8.994;2023-08-06T09:21:37;15.10;99.90
3919;DHT22;1974;48.670;8.994;2023-08-06T09:24:07;15.10;99.90
3919;DHT22;1974;48.670;8.994;2023-08-06T09:26:34;15.10;99.90
3919;DHT22;1974;48.670;8.994;2023-08-06T09:29:01;15.10;99.90
3919;DHT22;1974;48.670;8.994;2023-08-06T09:31:32;15.10;99.90
3919;DHT22;1974;48.670;8.994;2023-08-06T09:34:00;15.10;99.90
3919;DHT22;1974;48.670;8.994;2023-08-06T09:36:27;14.90;99.90
3919;DHT22;1974;48.670;8.994;2023-08-06T09:38:55;14.70;99.90
3919;DHT22;1974;48.670;8.994;2023-08-06T09:41:28;14.80;99.90
3919;DHT22;1974;48.670;8.994;2023-08-06T09:43:55;14.80;99.90
3919;DHT22;1974;48.670;8.994;2023-08-06T09:46:22;14.80;99.90
3919;DHT22;1974;48.670;8.994;2023-08-06T09:48:50;14.80;99.90
3919;DHT22;1974;48.670;8.994;2023-08-06T09:51:17;14.60;99.90
3919;DHT22;1974;48.670;8.994;2023-08-06T09:53:44;14.50;99.90
3919;DHT22;1974;48.670;8.994;2023-08-06T09:56:13;14.40;99.90
3919;DHT22;1974;48.670;8.994;2023-08-06T09:58:42;14.30;99.90
3919;DHT22;1974;48.670;8.994;2023-08-06T10:01:10;14.30;99.90
3919;DHT22;1974;48.670;8.994;2023-08-06T10:03:38;14.30;99.90
3919;DHT22;1974;48.670;8.994;2023-08-06T10:06:06;14.20;99.90
3919;DHT22;1974;48.670;8.994;2023-08-06T10:08:34;14.20;99.90
3919;DHT22;1974;48.670;8.994;2023-08-06T10:11:02;14.20;99.90
3919;DHT22;1974;48.670;8.994;2023-08-06T10:13:33;14.20;99.90
3919;DHT22;1974;48.670;8.994;2023-08-06T10:16:02;14.30;99.90
3919;DHT22;1974;48.670;8.994;2023-08-06T10:18:30;14.30;99.90
3919;DHT22;1974;48.670;8.994;2023-08-06T10:20:57;14.30;99.90
3919;DHT22;1974;48.670;8.994;2023-08-06T10:23:33;14.30;99.90
3919;DHT22;1974;48.670;8.994;2023-08-06T10:26:03;14.30;99.90
3919;DHT22;1974;48.670;8.994;2023-08-06T10:28:36;14.40;99.90
3919;DHT22;1974;48.670;8.994;2023-08-06T10:31:04;14.40;99.90
3919;DHT22;1974;48.670;8.994;2023-08-06T10:33:41;14.50;99.90
3919;DHT22;1974;48.670;8.994;2023-08-06T10:36:10;14.40;99.90
3919;DHT22;1974;48.670;8.994;2023-08-06T10:38:45;14.40;99.90
3919;DHT22;1974;48.670;8.994;2023-08-06T10:41:16;14.40;99.90
3919;DHT22;1974;48.670;8.994;2023-08-06T10:43:47;14.30;99.90
3919;DHT22;1974;48.670;8.994;2023-08-06T10:46:22;14.30;99.90
3919;DHT22;1974;48.670;8.994;2023-08-06T10:48:49;14.40;99.90
3919;DHT22;1974;48.670;8.994;2023-08-06T10:51:16;14.30;99.90
3919;DHT22;1974;48.670;8.994;2023-08-06T10:53:44;14.40;99.90
3919;DHT22;1974;48.670;8.994;2023-08-06T10:56:14;14.30;99.90
3919;DHT22;1974;48.670;8.994;2023-08-06T10:58:41;14.30;99.90
3919;DHT22;1974;48.670;8.994;2023-08-06T11:01:10;14.20;99.90
3919;DHT22;1974;48.670;8.994;2023-08-06T11:03:38;14.20;99.90
3919;DHT22;1974;48.670;8.994;2023-08-06T11:06:06;14.20;99.90
3919;DHT22;1974;48.670;8.994;2023-08-06T11:08:34;14.30;99.90
3919;DHT22;1974;48.670;8.994;2023-08-06T11:11:08;14.40;99.90
3919;DHT22;1974;48.670;8.994;2023-08-06T11:13:36;14.40;99.90
3919;DHT22;1974;48.670;8.994;2023-08-06T11:16:03;14.40;99.90
3919;DHT22;1974;48.670;8.994;2023-08-06T11:18:32;14.40;99.90
3919;DHT22;1974;48.670;8.994;2023-08-06T11:20:59;14.50;99.90
3919;DHT22;1974;48.670;8.994;2023-08-06T11:23:27;14.40;99.90
3919;DHT22;1974;48.670;8.994;2023-08-06T11:25:54;14.40;99.90
3919;DHT22;1974;48.670;8.994;2023-08-06T11:28:21;14.40;99.90
3919;DHT22;1974;48.670;8.994;2023-08-06T11:30:48;14.40;99.90
3919;DHT22;1974;48.670;8.994;2023-08-06T11:33:17;14.40;99.90
3919;DHT22;1974;48.670;8.994;2023-08-06T11:35:47;14.40;99.90
3919;DHT22;1974;48.670;8.994;2023-08-06T11:38:14;14.40;99.90
3919;DHT22;1974;48.670;8.994;2023-08-06T11:40:43;14.40;99.90
3919;DHT22;1974;48.670;8.994;2023-08-06T11:43:10;14.40;99.90
3919;DHT22;1974;48.670;8.994;2023-08-06T11:45:37;14.40;99.90
3919;DHT22;1974;48.670;8.994;2023-08-06T11:48:04;14.30;99.90
3919;DHT22;1974;48.670;8.994;2023-08-06T11:50:31;14.30;99.90
3919;DHT22;1974;48.670;8.994;2023-08-06T11:53:04;14.20;99.90
3919;DHT22;1974;48.670;8.994;2023-08-06T11:55:31;14.20;99.90
3919;DHT22;1974;48.670;8.994;2023-08-06T11:57:59;14.30;99.90
3919;DHT22;1974;48.670;8.994;2023-08-06T12:00:29;14.30;99.90
3919;DHT22;1974;48.670;8.994;2023-08-06T12:02:56;14.20;99.90
3919;DHT22;1974;48.670;8.994;2023-08-06T12:05:28;14.20;99.90
3919;DHT22;1974;48.670;8.994;2023-08-06T12:07:56;14.20;99.90
3919;DHT22;1974;48.670;8.994;2023-08-06T12:10:27;14.20;99.90
3919;DHT22;1974;48.670;8.994;2023-08-06T12:12:54;14.20;99.90
3919;DHT22;1974;48.670;8.994;2023-08-06T12:15:23;14.10;99.90
3919;DHT22;1974;48.670;8.994;2023-08-06T12:17:50;14.10;99.90
3919;DHT22;1974;48.670;8.994;2023-08-06T12:20:17;14.20;99.90
3919;DHT22;1974;48.670;8.994;2023-08-06T12:22:44;14.20;99.90
3919;DHT22;1974;48.670;8.994;2023-08-06T12:25:12;14.30;99.90
3919;DHT22;1974;48.670;8.994;2023-08-06T12:27:41;14.40;99.90
3919;DHT22;1974;48.670;8.994;2023-08-06T12:30:09;14.50;99.90
3919;DHT22;1974;48.670;8.994;2023-08-06T12:32:37;14.60;99.90
3919;DHT22;1974;48.670;8.994;2023-08-06T12:35:05;14.50;99.90
3919;DHT22;1974;48.670;8.994;2023-08-06T12:37:33;14.40;99.90
3919;DHT22;1974;48.670;8.994;2023-08-06T12:39:59;14.40;99.90
3919;DHT22;1974;48.670;8.994;2023-08-06T12:42:26;14.30;99.90
3919;DHT22;1974;48.670;8.994;2023-08-06T12:44:54;14.40;99.90
3919;DHT22;1974;48.670;8.994;2023-08-06T12:47:21;14.40;99.90
3919;DHT22;1974;48.670;8.994;2023-08-06T12:49:48;14.50;99.90
3919;DHT22;1974;48.670;8.994;2023-08-06T12:52:15;14.60;99.90
3919;DHT22;1974;48.670;8.994;2023-08-06T12:54:43;14.60;99.90
3919;DHT22;1974;48.670;8.994;2023-08-06T12:57:11;14.70;99.90
3919;DHT22;1974;48.670;8.994;2023-08-06T12:59:38;14.70;99.90
3919;DHT22;1974;48.670;8.994;2023-08-06T13:02:06;14.60;99.90
3919;DHT22;1974;48.670;8.994;2023-08-06T13:04:33;14.70;99.90
3919;DHT22;1974;48.670;8.994;2023-08-06T13:07:00;14.80;99.90
3919;DHT22;1974;48.670;8.994;2023-08-06T13:09:27;14.80;99.90
3919;DHT22;1974;48.670;8.994;2023-08-06T13:11:53;14.90;99.90
3919;DHT22;1974;48.670;8.994;2023-08-06T13:14:20;15.00;99.90
3919;DHT22;1974;48.670;8.994;2023-08-06T13:16:47;15.00;99.90
3919;DHT22;1974;48.670;8.994;2023-08-06T13:19:15;15.10;99.90
3919;DHT22;1974;48.670;8.994;2023-08-06T13:22:02;15.10;99.90
3919;DHT22;1974;48.670;8.994;2023-08-06T13:24:30;15.20;99.90
3919;DHT22;1974;48.670;8.994;2023-08-06T13:26:57;15.30;99.90
3919;DHT22;1974;48.670;8.994;2023-08-06T13:29:25;15.20;99.90
3919;DHT22;1974;48.670;8.994;2023-08-06T13:31:52;15.30;99.90
3919;DHT22;1974;48.670;8.994;2023-08-06T13:34:20;15.30;99.90
3919;DHT22;1974;48.670;8.994;2023-08-06T13:36:47;15.20;99.90
3919;DHT22;1974;48.670;8.994;2023-08-06T13:39:14;15.30;99.90
3919;DHT22;1974;48.670;8.994;2023-08-06T13:41:42;15.40;99.90
3919;DHT22;1974;48.670;8.994;2023-08-06T13:44:09;15.60;99.90
3919;DHT22;1974;48.670;8.994;2023-08-06T13:46:39;15.80;99.90
3919;DHT22;1974;48.670;8.994;2023-08-06T13:49:06;15.90;99.90
3919;DHT22;1974;48.670;8.994;2023-08-06T13:51:34;16.10;99.90
3919;DHT22;1974;48.670;8.994;2023-08-06T13:54:01;16.20;99.90
3919;DHT22;1974;48.670;8.994;2023-08-06T13:56:28;16.30;99.90
3919;DHT22;1974;48.670;8.994;2023-08-06T13:58:56;16.30;99.90
3919;DHT22;1974;48.670;8.994;2023-08-06T14:01:22;16.20;99.90
3919;DHT22;1974;48.670;8.994;2023-08-06T14:03:49;16.20;99.90
3919;DHT22;1974;48.670;8.994;2023-08-06T14:06:16;16.10;99.90
3919;DHT22;1974;48.670;8.994;2023-08-06T14:08:44;16.00;99.90
3919;DHT22;1974;48.670;8.994;2023-08-06T14:11:11;16.00;99.90
3919;DHT22;1974;48.670;8.994;2023-08-06T14:13:37;15.90;99.90
3919;DHT22;1974;48.670;8.994;2023-08-06T14:16:04;15.90;99.90
3919;DHT22;1974;48.670;8.994;2023-08-06T14:18:31;15.80;99.90
3919;DHT22;1974;48.670;8.994;2023-08-06T14:20:58;15.70;99.90
3919;DHT22;1974;48.670;8.994;2023-08-06T14:23:25;15.50;99.90
3919;DHT22;1974;48.670;8.994;2023-08-06T14:25:53;15.30;99.90
3919;DHT22;1974;48.670;8.994;2023-08-06T14:28:20;15.10;99.90
3919;DHT22;1974;48.670;8.994;2023-08-06T14:30:47;15.00;99.90
3919;DHT22;1974;48.670;8.994;2023-08-06T14:33:13;14.90;99.90
3919;DHT22;1974;48.670;8.994;2023-08-06T14:35:40;14.90;99.90
3919;DHT22;1974;48.670;8.994;2023-08-06T14:38:07;15.00;99.90
3919;DHT22;1974;48.670;8.994;2023-08-06T14:40:33;15.10;99.90
3919;DHT22;1974;48.670;8.994;2023-08-06T14:43:05;15.10;99.90
3919;DHT22;1974;48.670;8.994;2023-08-06T14:45:31;15.10;99.90
3919;DHT22;1974;48.670;8.994;2023-08-06T14:47:58;15.10;99.90
3919;DHT22;1974;48.670;8.994;2023-08-06T14:50:25;15.10;99.90
3919;DHT22;1974;48.670;8.994;2023-08-06T14:52:52;15.20;99.90
3919;DHT22;1974;48.670;8.994;2023-08-06T14:55:24;15.30;99.90
3919;DHT22;1974;48.670;8.994;2023-08-06T14:57:51;15.40;99.90
3919;DHT22;1974;48.670;8.994;2023-08-06T15:00:19;15.50;99.90
3919;DHT22;1974;48.670;8.994;2023-08-06T15:02:46;15.40;99.90
3919;DHT22;1974;48.670;8.994;2023-08-06T15:05:13;15.30;99.90
3919;DHT22;1974;48.670;8.994;2023-08-06T15:07:40;15.10;99.90
3919;DHT22;1974;48.670;8.994;2023-08-06T15:10:07;14.90;99.90
3919;DHT22;1974;48.670;8.994;2023-08-06T15:12:34;14.70;99.90
3919;DHT22;1974;48.670;8.994;2023-08-06T15:15:01;14.50;99.90
3919;DHT22;1974;48.670;8.994;2023-08-06T15:17:29;14.50;99.90
3919;DHT22;1974;48.670;8.994;2023-08-06T15:19:56;14.40;99.90
3919;DHT22;1974;48.670;8.994;2023-08-06T15:22:25;14.30;99.90
3919;DHT22;1974;48.670;8.994;2023-08-06T15:24:52;14.20;99.90
3919;DHT22;1974;48.670;8.994;2023-08-06T15:27:18;14.10;99.90
3919;DHT22;1974;48.670;8.994;2023-08-06T15:29:45;14.10;99.90
3919;DHT22;1974;48.670;8.994;2023-08-06T15:32:12;14.10;99.90
3919;DHT22;1974;48.670;8.994;2023-08-06T15:34:40;14.10;99.90
3919;DHT22;1974;48.670;8.994;2023-08-06T15:37:07;14.10;99.90
3919;DHT22;1974;48.670;8.994;2023-08-06T15:39:34;14.20;99.90
3919;DHT22;1974;48.670;8.994;2023-08-06T15:42:01;14.20;99.90
3919;DHT22;1974;48.670;8.994;2023-08-06T15:44:28;14.30;99.90
3919;DHT22;1974;48.670;8.994;2023-08-06T15:46:55;14.20;99.90
3919;DHT22;1974;48.670;8.994;2023-08-06T15:49:22;14.20;99.90
3919;DHT22;1974;48.670;8.994;2023-08-06T15:51:51;14.10;99.90
3919;DHT22;1974;48.670;8.994;2023-08-06T15:54:18;14.20;99.90
3919;DHT22;1974;48.670;8.994;2023-08-06T15:56:45;14.10;99.90
3919;DHT22;1974;48.670;8.994;2023-08-06T15:59:21;14.20;99.90
3919;DHT22;1974;48.670;8.994;2023-08-06T16:01:48;14.20;99.90
3919;DHT22;1974;48.670;8.994;2023-08-06T16:04:15;14.20;99.90